createdAt,value
2023-05-05T00:00:27.012Z,13.66
2023-05-05T00:02:55.071Z,13.64
2023-05-05T00:05:26.183Z,13.63
2023-05-05T00:08:07.431Z,13.61
2023-05-05T00:10:38.970Z,13.63
2023-05-05T00:15:53.191Z,13.64
2023-05-05T00:18:22.116Z,13.62
2023-05-05T00:20:49.505Z,13.61
2023-05-05T00:23:16.951Z,13.65
2023-05-05T00:25:47.524Z,13.62
2023-05-05T00:28:17.658Z,13.64
2023-05-05T00:31:05.109Z,13.65
2023-05-05T00:33:35.105Z,13.77
2023-05-05T00:36:05.435Z,13.79
2023-05-05T00:41:25.583Z,13.74
2023-05-05T00:43:53.469Z,13.71
2023-05-05T00:46:25.537Z,13.69
2023-05-05T00:48:53.739Z,13.54
2023-05-05T00:51:21.636Z,13.53
2023-05-05T00:53:48.772Z,13.55
2023-05-05T00:56:21.752Z,13.55
2023-05-05T00:58:55.805Z,13.54
2023-05-05T01:01:52.337Z,13.53
2023-05-05T01:04:27.755Z,13.51
2023-05-05T01:07:29.218Z,13.48
2023-05-05T01:11:02.658Z,13.46
2023-05-05T01:14:02.085Z,13.44
2023-05-05T01:16:55.554Z,13.41
2023-05-05T01:23:08.336Z,13.40
2023-05-05T01:26:02.184Z,13.38
2023-05-05T01:28:41.824Z,13.38
2023-05-05T01:31:45.354Z,13.35
2023-05-05T01:34:14.910Z,13.30
2023-05-05T01:36:46.039Z,13.27
2023-05-05T01:39:15.798Z,13.26
2023-05-05T01:41:47.605Z,13.25
2023-05-05T01:44:16.631Z,13.26
2023-05-05T01:46:49.980Z,13.26
2023-05-05T01:49:18.612Z,13.27
2023-05-05T01:51:49.043Z,13.27
2023-05-05T01:54:16.234Z,13.29
2023-05-05T01:56:43.460Z,13.30
2023-05-05T01:59:13.721Z,13.30
2023-05-05T02:01:41.555Z,13.31
2023-05-05T02:04:12.453Z,13.29
2023-05-05T02:06:39.521Z,13.30
2023-05-05T02:09:08.045Z,13.37
2023-05-05T02:11:36.086Z,13.45
2023-05-05T02:14:03.092Z,13.43
2023-05-05T02:16:32.594Z,13.41
2023-05-05T02:19:01.976Z,13.33
2023-05-05T02:21:29.038Z,13.18
2023-05-05T02:23:56.172Z,13.14
2023-05-05T02:26:23.096Z,13.10
2023-05-05T02:29:01.853Z,13.08
2023-05-05T02:31:29.516Z,13.08
2023-05-05T02:33:58.405Z,13.09
2023-05-05T02:36:28.081Z,13.09
2023-05-05T02:39:02.946Z,13.06
2023-05-05T02:41:31.536Z,13.04
2023-05-05T02:44:00.477Z,13.01
2023-05-05T02:46:28.471Z,13.00
2023-05-05T02:48:55.409Z,12.98
2023-05-05T02:51:23.264Z,12.93
2023-05-05T02:53:51.850Z,12.89
2023-05-05T02:56:57.634Z,12.86
2023-05-05T02:59:36.360Z,12.80
2023-05-05T03:02:15.181Z,12.78
2023-05-05T03:04:51.978Z,12.79
2023-05-05T03:07:24.389Z,12.82
2023-05-05T03:10:09.261Z,12.83
2023-05-05T03:12:48.732Z,12.94
2023-05-05T03:15:22.595Z,12.95
2023-05-05T03:17:50.056Z,13.03
2023-05-05T03:20:19.877Z,13.06
2023-05-05T03:22:47.436Z,13.09
2023-05-05T03:25:15.387Z,13.11
2023-05-05T03:27:42.624Z,13.01
2023-05-05T03:30:11.326Z,12.99
2023-05-05T03:32:46.612Z,13.02
2023-05-05T03:35:14.524Z,13.03
2023-05-05T03:37:42.108Z,13.12
2023-05-05T03:40:10.509Z,13.22
2023-05-05T03:42:47.466Z,13.24
2023-05-05T03:45:14.940Z,13.27
2023-05-05T03:47:41.970Z,13.29
2023-05-05T03:50:10.858Z,13.30
2023-05-05T03:52:38.297Z,13.26
2023-05-05T03:55:06.398Z,13.26
2023-05-05T03:57:34.475Z,13.26
2023-05-05T04:00:01.945Z,13.22
2023-05-05T04:02:30.647Z,13.17
2023-05-05T04:04:57.555Z,13.18
2023-05-05T04:07:25.635Z,13.24
2023-05-05T04:09:52.819Z,13.31
2023-05-05T04:12:20.384Z,13.35
2023-05-05T04:14:47.521Z,13.41
2023-05-05T04:17:14.496Z,13.44
2023-05-05T04:19:43.072Z,13.51
2023-05-05T04:22:11.082Z,13.57
2023-05-05T04:24:38.243Z,13.61
2023-05-05T04:27:05.656Z,13.64
2023-05-05T04:29:33.077Z,13.66
2023-05-05T04:32:02.769Z,13.64
2023-05-05T04:34:30.509Z,13.64
2023-05-05T04:36:57.456Z,13.66
2023-05-05T04:40:03.387Z,13.67
2023-05-05T04:45:58.321Z,13.69
2023-05-05T04:48:34.570Z,13.73
2023-05-05T04:51:05.232Z,13.75
2023-05-05T04:53:44.532Z,13.78
2023-05-05T04:56:17.267Z,13.83
2023-05-05T04:58:47.851Z,13.91
2023-05-05T05:01:16.758Z,13.95
2023-05-05T05:03:45.772Z,14.01
2023-05-05T05:06:23.152Z,14.10
2023-05-05T05:08:53.130Z,14.14
2023-05-05T05:11:21.618Z,14.17
2023-05-05T05:13:48.602Z,14.18
2023-05-05T05:16:15.669Z,14.22
2023-05-05T05:18:46.206Z,14.31
2023-05-05T05:21:13.705Z,14.31
2023-05-05T05:23:40.723Z,14.34
2023-05-05T05:26:07.712Z,14.40
2023-05-05T05:28:35.576Z,14.40
2023-05-05T05:31:02.581Z,14.43
2023-05-05T05:33:30.418Z,14.51
2023-05-05T05:35:57.988Z,14.61
2023-05-05T05:38:25.634Z,14.69
2023-05-05T05:40:55.594Z,14.76
2023-05-05T05:43:22.785Z,14.85
2023-05-05T05:45:50.295Z,14.90
2023-05-05T05:48:18.590Z,14.92
2023-05-05T05:50:45.790Z,14.93
2023-05-05T05:53:14.230Z,14.90
2023-05-05T05:55:45.491Z,14.83
2023-05-05T05:58:13.824Z,14.76
2023-05-05T06:00:40.926Z,14.71
2023-05-05T06:03:09.300Z,14.70
2023-05-05T06:05:37.620Z,14.72
2023-05-05T06:08:04.849Z,14.75
2023-05-05T06:10:35.394Z,14.80
2023-05-05T06:13:10.499Z,14.84
2023-05-05T06:15:40.969Z,14.87
2023-05-05T06:18:08.713Z,14.87
2023-05-05T06:20:36.626Z,14.94
2023-05-05T06:23:03.458Z,15.08
2023-05-05T06:25:33.483Z,15.20
2023-05-05T06:28:00.463Z,15.31
2023-05-05T06:30:27.273Z,15.37
2023-05-05T06:32:54.110Z,15.40
2023-05-05T06:35:21.859Z,15.48
2023-05-05T06:37:48.622Z,15.51
2023-05-05T06:40:15.623Z,15.50
2023-05-05T06:42:43.333Z,15.58
2023-05-05T06:45:15.235Z,15.67
2023-05-05T06:47:43.559Z,15.61
2023-05-05T06:50:12.108Z,15.57
2023-05-05T06:52:39.635Z,15.59
2023-05-05T06:55:06.966Z,15.64
2023-05-05T06:57:33.996Z,15.69
2023-05-05T07:00:03.128Z,15.75
2023-05-05T07:02:31.250Z,15.92
2023-05-05T07:04:58.131Z,16.12
2023-05-05T07:07:38.363Z,16.24
2023-05-05T07:10:06.280Z,16.36
2023-05-05T07:12:33.947Z,16.44
2023-05-05T07:15:09.373Z,16.54
2023-05-05T07:17:43.876Z,16.66
2023-05-05T07:20:11.513Z,16.75
2023-05-05T07:22:38.991Z,16.85
2023-05-05T07:25:09.564Z,16.97
2023-05-05T07:27:37.024Z,17.12
2023-05-05T07:30:11.144Z,17.26
2023-05-05T07:32:39.818Z,17.29
2023-05-05T07:38:33.970Z,17.31
2023-05-05T07:41:02.113Z,17.27
2023-05-05T07:43:38.822Z,17.14
2023-05-05T07:46:19.917Z,17.07
2023-05-05T07:49:09.943Z,17.05
2023-05-05T07:51:37.434Z,16.99
2023-05-05T07:54:04.814Z,16.99
2023-05-05T07:56:32.216Z,17.10
2023-05-05T07:58:58.995Z,17.25
2023-05-05T08:01:26.795Z,17.33
2023-05-05T08:03:54.060Z,17.42
2023-05-05T08:06:22.504Z,17.48
2023-05-05T08:08:49.507Z,17.56
2023-05-05T08:11:16.606Z,17.50
2023-05-05T08:13:47.966Z,17.43
2023-05-05T08:16:17.030Z,17.42
2023-05-05T08:18:47.431Z,17.52
2023-05-05T08:21:17.366Z,17.69
2023-05-05T08:23:45.873Z,17.76
2023-05-05T08:26:13.954Z,17.74
2023-05-05T08:28:41.787Z,17.73
2023-05-05T08:31:08.949Z,17.80
2023-05-05T08:33:36.098Z,17.86
2023-05-05T08:36:03.395Z,17.81
2023-05-05T08:38:30.657Z,17.74
2023-05-05T08:40:58.163Z,17.68
2023-05-05T08:43:25.480Z,17.69
2023-05-05T08:45:52.556Z,17.79
2023-05-05T08:48:22.785Z,17.95
2023-05-05T08:50:59.572Z,18.08
2023-05-05T08:54:01.857Z,18.18
2023-05-05T08:56:34.018Z,18.29
2023-05-05T08:59:01.446Z,18.38
2023-05-05T09:01:28.636Z,18.43
2023-05-05T09:03:55.868Z,18.47
2023-05-05T09:06:23.881Z,18.45
2023-05-05T09:08:50.874Z,18.39
2023-05-05T09:11:17.800Z,18.39
2023-05-05T09:13:44.641Z,18.43
2023-05-05T09:16:11.462Z,18.46
2023-05-05T09:18:40.449Z,18.47
2023-05-05T09:21:21.400Z,18.56
2023-05-05T09:24:09.120Z,18.69
2023-05-05T09:26:42.069Z,18.85
2023-05-05T09:29:09.083Z,18.94
2023-05-05T09:31:36.703Z,18.99
2023-05-05T09:34:16.646Z,18.96
2023-05-05T09:36:48.905Z,19.00
2023-05-05T09:39:20.440Z,19.11
2023-05-05T09:41:51.246Z,19.05
2023-05-05T09:44:34.674Z,18.98
2023-05-05T09:47:01.621Z,19.07
2023-05-05T09:49:29.492Z,19.09
2023-05-05T09:51:56.815Z,18.99
2023-05-05T09:54:29.695Z,18.99
2023-05-05T09:56:56.600Z,19.04
2023-05-05T09:59:23.573Z,19.10
2023-05-05T10:04:33.239Z,19.20
2023-05-05T10:07:00.345Z,19.25
2023-05-05T10:09:27.350Z,19.28
2023-05-05T10:11:54.733Z,19.29
2023-05-05T10:14:21.561Z,19.23
2023-05-05T10:16:50.490Z,19.15
2023-05-05T10:19:19.303Z,19.19
2023-05-05T10:21:52.903Z,19.29
2023-05-05T10:24:29.070Z,19.32
2023-05-05T10:26:56.508Z,19.35
2023-05-05T10:29:37.252Z,19.39
2023-05-05T10:32:27.110Z,19.54
2023-05-05T10:34:55.865Z,19.74
2023-05-05T10:37:22.725Z,19.83
2023-05-05T10:39:50.035Z,19.91
2023-05-05T10:42:19.254Z,20.16
2023-05-05T10:44:48.895Z,20.27
2023-05-05T10:47:16.678Z,20.21
2023-05-05T10:49:53.982Z,20.19
2023-05-05T10:52:39.489Z,20.22
2023-05-05T10:55:17.686Z,20.35
2023-05-05T10:57:45.711Z,20.37
2023-05-05T11:00:37.583Z,20.41
2023-05-05T11:03:16.537Z,20.54
2023-05-05T11:06:05.416Z,20.66
2023-05-05T11:08:35.795Z,20.79
2023-05-05T11:11:02.949Z,20.88
2023-05-05T11:13:30.993Z,20.90
2023-05-05T11:15:58.771Z,20.96
2023-05-05T11:18:38.783Z,21.04
2023-05-05T11:21:14.885Z,21.19
2023-05-05T11:23:47.388Z,21.23
2023-05-05T11:26:14.732Z,21.26
2023-05-05T11:29:02.324Z,21.27
2023-05-05T11:31:32.789Z,21.35
2023-05-05T11:34:27.930Z,21.48
2023-05-05T11:36:56.913Z,21.53
2023-05-05T11:39:38.653Z,21.37
2023-05-05T11:42:27.640Z,21.21
2023-05-05T11:44:54.585Z,21.07
2023-05-05T11:47:25.952Z,20.99
2023-05-05T11:49:55.349Z,20.92
2023-05-05T11:52:25.785Z,20.84
2023-05-05T11:54:52.846Z,20.70
2023-05-05T11:57:30.991Z,20.66
2023-05-05T12:00:03.483Z,20.76
2023-05-05T12:02:31.945Z,20.98
2023-05-05T12:04:59.424Z,21.11
2023-05-05T12:07:28.105Z,21.29
2023-05-05T12:09:56.424Z,21.55
2023-05-05T12:12:49.505Z,21.59
2023-05-05T12:15:17.518Z,21.57
2023-05-05T12:17:47.450Z,21.43
2023-05-05T12:20:14.427Z,21.35
2023-05-05T12:22:41.406Z,21.30
2023-05-05T12:25:08.687Z,21.31
2023-05-05T12:27:35.615Z,21.30
2023-05-05T12:30:16.386Z,21.34
2023-05-05T12:32:43.842Z,21.48
2023-05-05T12:35:13.284Z,21.64
2023-05-05T12:37:40.194Z,21.65
2023-05-05T12:40:08.277Z,21.58
2023-05-05T12:42:39.523Z,21.69
2023-05-05T12:45:07.697Z,21.78
2023-05-05T12:47:36.417Z,21.89
2023-05-05T12:50:03.528Z,22.05
2023-05-05T12:52:43.993Z,22.27
2023-05-05T12:55:11.235Z,22.41
2023-05-05T12:57:38.711Z,22.38
2023-05-05T13:00:13.354Z,22.28
2023-05-05T13:02:40.618Z,22.12
2023-05-05T13:05:08.151Z,22.02
2023-05-05T13:07:36.044Z,21.93
2023-05-05T13:10:10.966Z,21.90
2023-05-05T13:12:38.765Z,21.95
2023-05-05T13:15:06.402Z,21.95
2023-05-05T13:17:34.803Z,22.03
2023-05-05T13:20:01.795Z,22.17
2023-05-05T13:22:28.847Z,22.31
2023-05-05T13:24:55.742Z,22.41
2023-05-05T13:27:23.109Z,22.45
2023-05-05T13:29:52.155Z,22.54
2023-05-05T13:32:19.211Z,22.67
2023-05-05T13:34:46.079Z,22.77
2023-05-05T13:37:13.944Z,22.86
2023-05-05T13:39:41.349Z,22.91
2023-05-05T13:42:08.223Z,22.90
2023-05-05T13:44:36.033Z,22.96
2023-05-05T13:47:04.455Z,22.99
2023-05-05T13:49:34.683Z,22.80
2023-05-05T13:52:02.233Z,22.65
2023-05-05T13:54:29.190Z,22.64
2023-05-05T13:56:57.933Z,22.75
2023-05-05T13:59:25.401Z,22.83
2023-05-05T14:01:52.334Z,22.82
2023-05-05T14:04:19.173Z,22.82
2023-05-05T14:06:45.992Z,22.81
2023-05-05T14:09:12.850Z,22.77
2023-05-05T14:11:40.614Z,22.63
2023-05-05T14:14:07.415Z,22.67
2023-05-05T14:16:35.584Z,22.73
2023-05-05T14:19:03.104Z,22.78
2023-05-05T14:21:32.053Z,22.70
2023-05-05T14:23:58.923Z,22.61
2023-05-05T14:26:25.845Z,22.62
2023-05-05T14:28:52.661Z,22.90
2023-05-05T14:31:19.553Z,23.40
2023-05-05T14:33:46.347Z,23.77
2023-05-05T14:36:13.777Z,24.08
2023-05-05T14:38:42.308Z,24.38
2023-05-05T14:41:09.253Z,24.43
2023-05-05T14:43:36.486Z,24.26
2023-05-05T14:46:06.100Z,24.08
2023-05-05T14:48:33.597Z,24.20
2023-05-05T14:51:00.536Z,24.40
2023-05-05T14:53:27.419Z,24.64
2023-05-05T14:55:54.372Z,24.83
2023-05-05T14:58:23.993Z,25.28
2023-05-05T15:00:52.503Z,25.80
2023-05-05T15:03:19.898Z,26.09
2023-05-05T15:05:46.754Z,26.46
2023-05-05T15:08:14.629Z,27.02
2023-05-05T15:10:41.343Z,27.33
2023-05-05T15:13:08.644Z,27.45
2023-05-05T15:15:35.670Z,27.70
2023-05-05T15:18:04.434Z,28.10
2023-05-05T15:20:31.375Z,28.45
2023-05-05T15:22:58.122Z,28.89
2023-05-05T15:25:24.867Z,29.31
2023-05-05T15:30:34.039Z,29.50
2023-05-05T15:33:00.954Z,29.41
2023-05-05T15:35:27.707Z,29.30
2023-05-05T15:37:54.741Z,29.07
2023-05-05T15:40:22.378Z,28.52
2023-05-05T15:42:52.023Z,28.18
2023-05-05T15:45:18.916Z,28.12
2023-05-05T15:47:45.933Z,27.97
2023-05-05T15:50:13.202Z,27.45
2023-05-05T15:52:40.081Z,26.87
2023-05-05T15:55:08.017Z,26.23
2023-05-05T15:57:35.419Z,25.62
2023-05-05T16:00:02.684Z,25.15
2023-05-05T16:02:35.209Z,24.73
2023-05-05T16:05:02.083Z,24.30
2023-05-05T16:07:29.294Z,24.25
2023-05-05T16:09:56.651Z,24.62
2023-05-05T16:12:23.595Z,24.87
2023-05-05T16:14:50.426Z,24.75
2023-05-05T16:17:17.264Z,24.54
2023-05-05T16:19:44.457Z,24.56
2023-05-05T16:22:11.223Z,24.76
2023-05-05T16:24:38.773Z,24.74
2023-05-05T16:27:05.586Z,24.43
2023-05-05T16:29:32.453Z,24.04
2023-05-05T16:32:00.279Z,24.10
2023-05-05T16:34:27.070Z,24.47
2023-05-05T16:36:53.839Z,24.79
2023-05-05T16:39:20.763Z,24.95
2023-05-05T16:41:47.590Z,25.16
2023-05-05T16:44:15.773Z,25.28
2023-05-05T16:46:42.661Z,25.37
2023-05-05T16:49:09.847Z,25.46
2023-05-05T16:51:37.665Z,25.54
2023-05-05T16:54:06.312Z,25.41
2023-05-05T16:56:34.279Z,25.03
2023-05-05T16:59:01.044Z,24.37
2023-05-05T17:01:28.074Z,23.61
2023-05-05T17:03:56.980Z,22.99
2023-05-05T17:06:24.752Z,22.39
2023-05-05T17:08:52.570Z,21.85
2023-05-05T17:11:19.453Z,21.29
2023-05-05T17:13:48.872Z,20.77
2023-05-05T17:16:15.727Z,20.34
2023-05-05T17:18:42.520Z,19.93
2023-05-05T17:21:09.282Z,19.60
2023-05-05T17:23:36.278Z,19.32
2023-05-05T17:26:04.655Z,19.06
2023-05-05T17:28:32.347Z,18.84
2023-05-05T17:30:59.552Z,18.67
2023-05-05T17:33:27.151Z,18.47
2023-05-05T17:35:54.116Z,18.28
2023-05-05T17:38:21.141Z,18.10
2023-05-05T17:40:48.034Z,17.92
2023-05-05T17:43:15.638Z,17.76
2023-05-05T17:45:42.736Z,17.60
2023-05-05T17:48:09.693Z,17.46
2023-05-05T17:50:36.850Z,17.33
2023-05-05T17:53:04.342Z,17.20
2023-05-05T17:55:31.515Z,17.07
2023-05-05T17:57:58.469Z,16.97
2023-05-05T18:00:26.685Z,16.87
2023-05-05T18:02:53.913Z,16.78
2023-05-05T18:05:21.021Z,16.69
2023-05-05T18:07:48.137Z,16.59
2023-05-05T18:10:16.126Z,16.51
2023-05-05T18:12:43.232Z,16.44
2023-05-05T18:15:10.798Z,16.36
2023-05-05T18:17:38.931Z,16.28
2023-05-05T18:20:06.671Z,16.20
2023-05-05T18:22:36.703Z,16.12
2023-05-05T18:27:35.729Z,16.00
2023-05-05T18:30:04.707Z,15.94
2023-05-05T18:32:34.240Z,15.89
2023-05-05T18:35:01.248Z,15.84
2023-05-05T18:37:28.738Z,15.78
2023-05-05T18:39:55.752Z,15.72
2023-05-05T18:42:23.726Z,15.66
2023-05-05T18:44:50.580Z,15.59
2023-05-05T18:47:17.385Z,15.49
2023-05-05T18:49:45.192Z,15.42
2023-05-05T18:52:13.085Z,15.35
2023-05-05T18:54:40.810Z,15.28
2023-05-05T18:57:08.137Z,15.20
2023-05-05T18:59:36.198Z,15.15
2023-05-05T19:02:03.128Z,15.07
2023-05-05T19:04:32.448Z,14.99
2023-05-05T19:06:59.466Z,14.92
2023-05-05T19:09:26.766Z,14.84
2023-05-05T19:11:53.532Z,14.76
2023-05-05T19:14:20.393Z,14.69
2023-05-05T19:16:47.225Z,14.59
2023-05-05T19:19:14.179Z,14.50
2023-05-05T19:21:41.078Z,14.42
2023-05-05T19:24:08.180Z,14.36
2023-05-05T19:26:36.114Z,14.29
2023-05-05T19:29:02.988Z,14.23
2023-05-05T19:31:30.700Z,14.20
2023-05-05T19:33:59.694Z,14.16
2023-05-05T19:36:27.326Z,14.13
2023-05-05T19:38:57.754Z,14.11
2023-05-05T19:41:30.594Z,14.08
2023-05-05T19:44:00.925Z,14.05
2023-05-05T19:46:28.054Z,14.03
2023-05-05T19:48:55.290Z,14.01
2023-05-05T19:51:22.358Z,13.99
2023-05-05T19:53:50.300Z,13.97
2023-05-05T19:56:17.076Z,13.96
2023-05-05T19:58:58.336Z,13.93
2023-05-05T20:01:25.758Z,13.90
2023-05-05T20:03:53.887Z,13.88
2023-05-05T20:06:20.948Z,13.84
2023-05-05T20:08:47.793Z,13.81
2023-05-05T20:11:15.168Z,13.79
2023-05-05T20:13:42.553Z,13.77
2023-05-05T20:16:09.537Z,13.74
2023-05-05T20:18:36.660Z,13.71
2023-05-05T20:21:03.532Z,13.67
2023-05-05T20:23:32.200Z,13.65
2023-05-05T20:25:59.085Z,13.60
2023-05-05T20:28:26.375Z,13.56
2023-05-05T20:30:53.329Z,13.53
2023-05-05T20:33:20.482Z,13.51
2023-05-05T20:35:47.237Z,13.49
2023-05-05T20:38:14.331Z,13.48
2023-05-05T20:40:41.548Z,13.48
2023-05-05T20:43:09.334Z,13.48
2023-05-05T20:45:36.668Z,13.47
2023-05-05T20:48:05.065Z,13.46
2023-05-05T20:50:32.437Z,13.44
2023-05-05T20:52:59.301Z,13.44
2023-05-05T20:55:26.193Z,13.46
2023-05-05T20:57:53.412Z,13.46
2023-05-05T21:00:20.220Z,13.45
2023-05-05T21:02:47.594Z,13.43
2023-05-05T21:05:14.581Z,13.41
2023-05-05T21:07:41.524Z,13.36
2023-05-05T21:10:10.096Z,13.31
2023-05-05T21:12:37.159Z,13.27
2023-05-05T21:15:04.402Z,13.23
2023-05-05T21:17:32.447Z,13.19
2023-05-05T21:19:59.458Z,13.15
2023-05-05T21:22:26.180Z,13.12
2023-05-05T21:24:54.442Z,13.08
2023-05-05T21:27:24.635Z,13.04
2023-05-05T21:29:51.681Z,12.98
2023-05-05T21:32:18.669Z,12.91
2023-05-05T21:34:45.763Z,12.89
2023-05-05T21:37:12.632Z,12.89
2023-05-05T21:39:39.494Z,12.89
2023-05-05T21:42:06.272Z,12.86
2023-05-05T21:44:33.046Z,12.84
2023-05-05T21:46:59.857Z,12.83
2023-05-05T21:49:26.713Z,12.81
2023-05-05T21:51:55.930Z,12.76
2023-05-05T21:54:23.094Z,12.71
2023-05-05T21:56:49.997Z,12.66
2023-05-05T21:59:17.415Z,12.63
2023-05-05T22:01:44.453Z,12.59
2023-05-05T22:04:11.259Z,12.55
2023-05-05T22:06:38.053Z,12.51
2023-05-05T22:09:04.863Z,12.47
2023-05-05T22:11:33.074Z,12.41
2023-05-05T22:14:00.729Z,12.33
2023-05-05T22:16:28.251Z,12.29
2023-05-05T22:18:55.046Z,12.25
2023-05-05T22:21:21.837Z,12.20
2023-05-05T22:23:48.833Z,12.14
2023-05-05T22:26:16.785Z,12.05
2023-05-05T22:28:43.722Z,11.98
2023-05-05T22:31:10.497Z,11.90
2023-05-05T22:33:37.501Z,11.82
2023-05-05T22:36:05.535Z,11.77
2023-05-05T22:38:32.955Z,11.68
2023-05-05T22:41:00.852Z,11.62
2023-05-05T22:43:29.124Z,11.56
2023-05-05T22:45:56.659Z,11.53
2023-05-05T22:48:25.217Z,11.48
2023-05-05T22:50:52.049Z,11.44
2023-05-05T22:53:18.873Z,11.39
2023-05-05T22:55:45.756Z,11.35
2023-05-05T22:58:12.532Z,11.33
2023-05-05T23:00:40.130Z,11.30
2023-05-05T23:03:06.990Z,11.26
2023-05-05T23:05:34.664Z,11.23
2023-05-05T23:08:01.806Z,11.19
2023-05-05T23:10:28.688Z,11.14
2023-05-05T23:12:55.695Z,11.12
2023-05-05T23:15:23.427Z,11.10
2023-05-05T23:17:50.332Z,11.08
2023-05-05T23:20:17.193Z,11.04
2023-05-05T23:22:44.081Z,11.00
2023-05-05T23:25:11.090Z,10.97
2023-05-05T23:27:39.790Z,10.94
2023-05-05T23:30:08.309Z,10.91
2023-05-05T23:32:35.607Z,10.88
2023-05-05T23:35:02.420Z,10.85
2023-05-05T23:37:29.552Z,10.82
2023-05-05T23:39:56.497Z,10.79
2023-05-05T23:42:23.874Z,10.74
2023-05-05T23:44:50.800Z,10.69
2023-05-05T23:47:17.630Z,10.65
2023-05-05T23:49:44.448Z,10.63
2023-05-05T23:52:11.330Z,10.61
2023-05-05T23:54:38.536Z,10.58
2023-05-05T23:57:06.081Z,10.56
2023-05-05T23:59:33.603Z,10.55
